Time;durP1;ratioP1;P1;durP2;ratioP2;P2;SDS_P1;SDS_P2;PMS_P1;PMS_P2;Temp;Humidity;BMP_temperature;BMP_pressure;BME280_temperature;BME280_humidity;BME280_pressure;Samples;Min_cycle;Max_cycle;Signal;HPM_P1;HPM_P2
2024/03/09 00:00:42;;;;;;;12.15;6.97;;;4.90;95.20;;;;;;4949283;29;20051;-80
2024/03/09 00:03:11;;;;;;;;;;;4.90;95.20;;;;;;4946248;29;20451;-80
2024/03/09 00:05:39;;;;;;;14.57;8.13;;;4.80;95.30;;;;;;4925484;29;19923;-80
2024/03/09 00:08:08;;;;;;;14.73;7.90;;;4.80;95.40;;;;;;4924522;29;20044;-80
2024/03/09 00:10:36;;;;;;;17.45;8.65;;;4.80;95.40;;;;;;4926565;28;20491;-79
2024/03/09 00:13:03;;;;;;;15.25;8.07;;;4.80;95.40;;;;;;4901452;29;20059;-80
2024/03/09 00:15:30;;;;;;;14.68;7.35;;;4.80;95.50;;;;;;4933448;28;20050;-81
2024/03/09 00:17:58;;;;;;;13.10;7.35;;;4.80;95.50;;;;;;4952834;28;20056;-78
2024/03/09 00:20:36;;;;;;;15.57;8.35;;;4.70;95.50;;;;;;4938044;29;20146;-79
2024/03/09 00:23:07;;;;;;;16.00;8.77;;;4.80;95.60;;;;;;4959017;28;20039;-80
2024/03/09 00:25:37;;;;;;;17.33;10.27;;;4.70;95.70;;;;;;4933816;28;20439;-80
2024/03/09 00:28:05;;;;;;;15.90;9.60;;;4.70;95.70;;;;;;4926752;29;20048;-80
2024/03/09 00:30:34;;;;;;;16.85;8.45;;;4.70;95.70;;;;;;4925616;29;20043;-80
2024/03/09 00:33:05;;;;;;;16.35;9.45;;;4.70;95.80;;;;;;4942620;29;20476;-79
2024/03/09 00:35:34;;;;;;;16.75;9.55;;;4.70;95.90;;;;;;4917096;29;20155;-80
2024/03/09 00:38:01;;;;;;;18.08;9.98;;;4.60;95.90;;;;;;4930842;29;20412;-79
2024/03/09 00:40:28;;;;;;;17.40;10.07;;;4.60;96.00;;;;;;4909165;29;20142;-80
2024/03/09 00:43:03;;;;;;;19.58;11.27;;;4.60;96.00;;;;;;4935229;28;20042;-80
2024/03/09 00:45:31;;;;;;;17.67;9.10;;;4.60;96.00;;;;;;4952543;28;20150;-80
2024/03/09 00:47:58;;;;;;;22.88;12.80;;;4.60;96.00;;;;;;4981149;28;20047;-79
2024/03/09 00:50:26;;;;;;;18.65;10.75;;;4.60;96.10;;;;;;4928091;28;20055;-79
2024/03/09 00:52:54;;;;;;;17.17;9.70;;;4.60;96.10;;;;;;4964884;28;20051;-80
2024/03/09 00:55:22;;;;;;;17.70;9.52;;;4.60;96.20;;;;;;4954958;28;20042;-80
2024/03/09 00:57:50;;;;;;;17.65;9.98;;;4.60;96.20;;;;;;4966911;28;20554;-80
2024/03/09 01:00:23;;;;;;;16.73;9.35;;;4.60;96.30;;;;;;4938503;29;20582;-81
2024/03/09 01:02:54;;;;;;;15.60;8.20;;;4.60;96.30;;;;;;4961437;28;20093;-80
2024/03/09 01:05:25;;;;;;;14.82;8.13;;;4.50;96.30;;;;;;4977688;28;20051;-80
2024/03/09 01:07:52;;;;;;;16.67;8.88;;;4.50;96.40;;;;;;4928401;28;20065;-80
2024/03/09 01:10:19;;;;;;;16.27;8.95;;;4.50;96.40;;;;;;4929526;29;20054;-80
2024/03/09 01:12:48;;;;;;;15.63;8.52;;;4.50;96.50;;;;;;4967483;28;20531;-80
2024/03/09 01:15:16;;;;;;;16.60;8.52;;;4.50;96.50;;;;;;4948300;28;20407;-80
2024/03/09 01:17:43;;;;;;;14.85;8.15;;;4.50;96.50;;;;;;4957844;28;20047;-80
2024/03/09 01:20:12;;;;;;;14.52;7.93;;;4.50;96.60;;;;;;4933142;28;20046;-80
2024/03/09 01:22:43;;;;;;;15.20;8.15;;;4.40;96.60;;;;;;4941516;28;20078;-80
2024/03/09 01:25:11;;;;;;;16.98;8.40;;;4.40;96.60;;;;;;4966644;28;20153;-80
2024/03/09 01:27:40;;;;;;;13.20;7.28;;;4.50;96.70;;;;;;4951508;28;20499;-80
2024/03/09 01:30:09;;;;;;;14.57;8.68;;;4.40;96.80;;;;;;4951062;28;20102;-80
2024/03/09 01:32:40;;;;;;;15.88;7.65;;;4.50;96.80;;;;;;4944650;28;20050;-80
2024/03/09 01:35:08;;;;;;;14.90;7.78;;;4.40;96.80;;;;;;4933471;28;20446;-79
2024/03/09 01:37:36;;;;;;;15.13;7.85;;;4.40;96.80;;;;;;4941890;29;20055;-79
2024/03/09 01:40:04;;;;;;;14.50;8.18;;;4.40;96.90;;;;;;4971895;28;20093;-79
2024/03/09 01:42:31;;;;;;;14.82;7.43;;;4.40;96.90;;;;;;4948715;28;20042;-80
2024/03/09 01:44:59;;;;;;;16.75;8.57;;;4.40;96.90;;;;;;4942945;29;20067;-79
2024/03/09 01:47:28;;;;;;;17.92;9.23;;;4.40;97.00;;;;;;4925434;29;20555;-79
2024/03/09 01:49:57;;;;;;;16.35;8.38;;;4.40;97.00;;;;;;4929410;28;20047;-80
2024/03/09 01:52:31;;;;;;;15.15;8.23;;;4.40;97.00;;;;;;4926670;29;20047;-79
2024/03/09 01:55:04;;;;;;;16.45;9.02;;;4.40;97.00;;;;;;4915400;29;20122;-80
2024/03/09 01:57:32;;;;;;;18.88;8.20;;;4.40;97.00;;;;;;4939980;29;20150;-79
2024/03/09 02:00:01;;;;;;;17.50;8.00;;;4.40;97.00;;;;;;4941132;29;20047;-79
2024/03/09 02:02:32;;;;;;;18.13;10.32;;;4.40;97.10;;;;;;4943332;28;20512;-79
2024/03/09 02:05:04;;;;;;;19.00;10.88;;;4.40;97.10;;;;;;4907323;29;20115;-79
2024/03/09 02:07:33;;;;;;;16.58;9.25;;;4.40;97.10;;;;;;4942804;28;20062;-80
2024/03/09 02:10:00;;;;;;;13.43;8.35;;;4.40;97.10;;;;;;4894893;29;20452;-80
2024/03/09 02:12:27;;;;;;;14.80;8.30;;;4.40;97.10;;;;;;4911681;29;20171;-81
2024/03/09 02:14:54;;;;;;;18.52;10.65;;;4.30;97.20;;;;;;4902196;29;20169;-79
2024/03/09 02:17:24;;;;;;;15.57;9.10;;;4.30;97.20;;;;;;4881031;29;20048;-80
2024/03/09 02:19:54;;;;;;;17.45;8.75;;;4.30;97.20;;;;;;4937666;29;20056;-79
2024/03/09 02:22:22;;;;;;;15.90;7.80;;;4.30;97.20;;;;;;4918901;29;20477;-79
2024/03/09 02:24:55;;;;;;;16.05;9.07;;;4.30;97.30;;;;;;4896937;29;20051;-79
2024/03/09 02:27:25;;;;;;;15.23;7.97;;;4.30;97.30;;;;;;4897648;29;20504;-79
2024/03/09 02:29:53;;;;;;;14.70;7.55;;;4.30;97.40;;;;;;4921051;29;20559;-80
2024/03/09 02:32:21;;;;;;;13.55;7.32;;;4.30;97.40;;;;;;4924941;29;20051;-79
2024/03/09 02:34:49;;;;;;;16.42;8.55;;;4.20;97.40;;;;;;4909677;29;20408;-80
2024/03/09 02:37:19;;;;;;;14.57;8.20;;;4.30;97.40;;;;;;4927186;29;20078;-79
2024/03/09 02:39:47;;;;;;;14.15;8.13;;;4.20;97.40;;;;;;4964426;28;20051;-79
2024/03/09 02:42:15;;;;;;;14.18;7.43;;;4.20;97.50;;;;;;4957393;28;20098;-79
2024/03/09 02:44:42;;;;;;;11.85;6.47;;;4.10;97.50;;;;;;4962896;28;20428;-79
2024/03/09 02:47:10;;;;;;;13.55;7.75;;;4.20;97.60;;;;;;4939242;28;20057;-79
2024/03/09 02:49:38;;;;;;;12.93;7.28;;;4.20;97.60;;;;;;4918908;29;20055;-80
2024/03/09 02:52:06;;;;;;;16.35;8.43;;;4.10;97.70;;;;;;4930199;28;20048;-79
2024/03/09 02:54:35;;;;;;;14.73;7.32;;;4.10;97.70;;;;;;4959378;28;20093;-79
2024/03/09 02:57:06;;;;;;;11.50;6.43;;;4.10;97.70;;;;;;4917034;28;20086;-79
2024/03/09 02:59:35;;;;;;;13.10;7.00;;;4.10;97.80;;;;;;4955893;28;20039;-79
2024/03/09 03:02:03;;;;;;;12.80;6.53;;;4.10;97.80;;;;;;4946312;29;20074;-79
2024/03/09 03:04:34;;;;;;;14.25;7.18;;;4.00;97.80;;;;;;4971754;28;20042;-79
2024/03/09 03:07:01;;;;;;;13.35;7.35;;;4.10;97.90;;;;;;4959078;28;20046;-80
2024/03/09 03:09:28;;;;;;;14.55;7.07;;;4.00;97.80;;;;;;4927475;28;20139;-80
2024/03/09 03:11:56;;;;;;;17.15;8.93;;;4.00;97.80;;;;;;4976727;28;20043;-79
2024/03/09 03:14:25;;;;;;;15.05;7.68;;;4.00;97.90;;;;;;4940740;28;20050;-79
2024/03/09 03:16:56;;;;;;;12.73;6.57;;;4.00;97.90;;;;;;4961211;28;20078;-80
2024/03/09 03:19:24;;;;;;;14.48;7.43;;;4.00;98.00;;;;;;4929163;28;20475;-80
2024/03/09 03:21:54;;;;;;;12.70;6.35;;;4.00;98.00;;;;;;4967976;28;20126;-79
2024/03/09 03:24:24;;;;;;;12.23;6.60;;;3.90;98.00;;;;;;4954905;28;20122;-79
2024/03/09 03:26:53;;;;;;;12.77;6.45;;;3.90;98.10;;;;;;4954577;28;20138;-79
2024/03/09 03:29:21;;;;;;;12.73;6.65;;;3.90;98.20;;;;;;4959057;28;20053;-79
2024/03/09 03:31:49;;;;;;;11.05;6.10;;;3.90;98.20;;;;;;4927189;28;20065;-79
2024/03/09 03:34:17;;;;;;;13.70;7.40;;;3.90;98.30;;;;;;4944076;29;20039;-78
2024/03/09 03:36:45;;;;;;;11.20;6.10;;;3.90;98.30;;;;;;4927021;28;20058;-79
2024/03/09 03:39:12;;;;;;;12.65;6.68;;;3.90;98.30;;;;;;4968283;28;20055;-79
2024/03/09 03:41:41;;;;;;;14.55;7.22;;;3.90;98.30;;;;;;4953149;28;20101;-79
2024/03/09 03:44:11;;;;;;;14.75;8.52;;;3.80;98.30;;;;;;4929679;29;20451;-79
2024/03/09 03:46:38;;;;;;;12.35;7.35;;;3.80;98.30;;;;;;4967950;28;20101;-80
2024/03/09 03:49:06;;;;;;;14.77;7.60;;;3.90;98.30;;;;;;4937318;28;20447;-80
2024/03/09 03:51:33;;;;;;;13.05;6.97;;;3.90;98.30;;;;;;4923628;29;20051;-80
2024/03/09 03:54:00;;;;;;;13.10;7.63;;;3.90;98.20;;;;;;4939380;28;20431;-79
2024/03/09 03:56:28;;;;;;;14.40;7.78;;;3.90;98.20;;;;;;4938909;28;20456;-79
2024/03/09 03:58:55;;;;;;;12.88;7.10;;;3.90;98.30;;;;;;4929242;28;20377;-80
2024/03/09 04:01:23;;;;;;;13.35;7.13;;;3.90;98.30;;;;;;4961046;28;20046;-79
2024/03/09 04:03:50;;;;;;;12.30;6.45;;;3.90;98.30;;;;;;4944563;28;20135;-79
2024/03/09 04:06:19;;;;;;;12.80;6.75;;;3.90;98.30;;;;;;4964033;28;20555;-79
2024/03/09 04:08:46;;;;;;;12.20;6.50;;;3.90;98.30;;;;;;4938452;28;20051;-80
2024/03/09 04:11:14;;;;;;;14.73;8.02;;;3.90;98.30;;;;;;4922405;28;20130;-80
2024/03/09 04:13:41;;;;;;;15.40;8.77;;;4.00;98.30;;;;;;4942142;28;20050;-80
2024/03/09 04:16:08;;;;;;;15.23;8.10;;;3.90;98.30;;;;;;4937570;28;20058;-78
2024/03/09 04:18:36;;;;;;;15.55;8.57;;;4.00;98.30;;;;;;4932292;29;20055;-79
2024/03/09 04:21:04;;;;;;;13.68;7.43;;;4.00;98.30;;;;;;4945951;28;20520;-79
2024/03/09 04:23:31;;;;;;;14.30;7.25;;;4.00;98.30;;;;;;4953214;28;20042;-79
2024/03/09 04:25:58;;;;;;;13.25;7.40;;;4.00;98.30;;;;;;4938897;28;20050;-79
2024/03/09 04:28:28;;;;;;;13.10;7.05;;;4.00;98.30;;;;;;4957262;28;20141;-79
2024/03/09 04:30:59;;;;;;;14.05;7.25;;;4.00;98.30;;;;;;4967211;28;20097;-79
2024/03/09 04:33:28;;;;;;;14.13;7.50;;;4.00;98.30;;;;;;4955335;28;20050;-79
2024/03/09 04:35:57;;;;;;;15.57;7.50;;;4.00;98.30;;;;;;4933273;29;20058;-80
2024/03/09 04:38:25;;;;;;;15.25;7.78;;;4.10;98.30;;;;;;4931662;28;21121;-79
2024/03/09 04:40:53;;;;;;;16.42;8.77;;;4.10;98.30;;;;;;4949201;29;20051;-79
2024/03/09 04:43:22;;;;;;;14.77;7.32;;;4.10;98.30;;;;;;4922743;29;20039;-80
2024/03/09 04:45:50;;;;;;;16.60;7.97;;;4.10;98.30;;;;;;4928523;28;20051;-79
2024/03/09 04:48:18;;;;;;;15.48;8.75;;;4.10;98.30;;;;;;4942056;28;20053;-79
2024/03/09 04:50:46;;;;;;;17.90;9.25;;;4.10;98.30;;;;;;4952784;29;20035;-79
2024/03/09 04:53:16;;;;;;;14.98;8.13;;;4.10;98.30;;;;;;4985863;28;20121;-79
2024/03/09 04:55:48;;;;;;;15.05;8.02;;;4.10;98.30;;;;;;4973174;28;20042;-79
2024/03/09 04:58:18;;;;;;;14.32;8.07;;;4.10;98.30;;;;;;4959061;28;20130;-80
2024/03/09 05:00:46;;;;;;;14.98;7.38;;;4.10;98.30;;;;;;4960299;28;20098;-81
2024/03/09 05:03:13;;;;;;;15.98;8.80;;;4.10;98.30;;;;;;4977471;28;20125;-81
2024/03/09 05:05:42;;;;;;;16.27;8.10;;;4.10;98.30;;;;;;4963156;28;20046;-81
2024/03/09 05:08:10;;;;;;;15.20;7.80;;;4.10;98.40;;;;;;4965525;28;20042;-82
2024/03/09 05:10:38;;;;;;;13.60;7.63;;;4.10;98.40;;;;;;4925738;28;20403;-80
2024/03/09 05:13:06;;;;;;;17.50;9.43;;;4.10;98.40;;;;;;4927599;29;20137;-81
2024/03/09 05:15:35;;;;;;;17.98;9.65;;;4.10;98.40;;;;;;4967733;28;20050;-81
2024/03/09 05:18:07;;;;;;;16.95;8.73;;;4.00;98.40;;;;;;4957338;28;20049;-80
2024/03/09 05:20:36;;;;;;;16.85;8.70;;;4.10;98.40;;;;;;4950589;28;20074;-81
2024/03/09 05:23:06;;;;;;;16.00;9.38;;;4.00;98.40;;;;;;4938776;29;20389;-81
2024/03/09 05:25:40;;;;;;;16.15;9.00;;;4.00;98.40;;;;;;4940505;29;20051;-81
2024/03/09 05:28:12;;;;;;;18.70;9.55;;;4.00;98.50;;;;;;4927709;28;20134;-81
2024/03/09 05:30:41;;;;;;;17.63;9.68;;;4.00;98.50;;;;;;4931011;29;20051;-81
2024/03/09 05:33:09;;;;;;;17.42;8.63;;;3.90;98.50;;;;;;4959405;28;20046;-80
2024/03/09 05:35:36;;;;;;;15.23;8.00;;;3.90;98.60;;;;;;4937767;29;20047;-81
2024/03/09 05:38:04;;;;;;;15.77;8.32;;;3.90;98.60;;;;;;4937592;29;20051;-80
2024/03/09 05:40:33;;;;;;;14.27;7.60;;;3.80;98.60;;;;;;4933610;29;20098;-80
2024/03/09 05:43:06;;;;;;;20.30;11.05;;;3.80;98.70;;;;;;4933311;28;20049;-80
2024/03/09 05:45:35;;;;;;;16.70;8.70;;;3.80;98.80;;;;;;4973919;28;20399;-81
2024/03/09 05:48:03;;;;;;;17.63;9.35;;;3.80;98.80;;;;;;4938674;29;20058;-81
2024/03/09 05:50:30;;;;;;;16.35;8.45;;;3.70;98.80;;;;;;4956525;28;20050;-81
2024/03/09 05:53:00;;;;;;;19.02;9.63;;;3.70;98.90;;;;;;4946841;29;20043;-81
2024/03/09 05:55:28;;;;;;;19.08;10.13;;;3.70;98.90;;;;;;4921644;28;20097;-81
2024/03/09 05:57:56;;;;;;;17.20;9.77;;;3.70;98.90;;;;;;4951303;28;20478;-81
2024/03/09 06:00:27;;;;;;;16.85;8.90;;;3.70;98.90;;;;;;4957090;28;20097;-82
2024/03/09 06:02:56;;;;;;;18.13;9.70;;;3.70;98.90;;;;;;4967182;28;20047;-81
2024/03/09 06:05:28;;;;;;;17.85;9.32;;;3.70;98.90;;;;;;4959469;28;20057;-82
2024/03/09 06:07:57;;;;;;;16.38;8.07;;;3.70;98.90;;;;;;4964097;28;20053;-81
2024/03/09 06:10:25;;;;;;;14.02;8.02;;;3.70;98.90;;;;;;4973708;28;20054;-81
2024/03/09 06:12:52;;;;;;;15.57;8.75;;;3.70;98.90;;;;;;4951326;29;20492;-82
2024/03/09 06:15:25;;;;;;;17.15;9.38;;;3.70;99.00;;;;;;4964186;28;20467;-82
2024/03/09 06:17:57;;;;;;;16.73;8.30;;;3.70;99.00;;;;;;4963050;28;20038;-81
2024/03/09 06:20:28;;;;;;;15.13;8.02;;;3.70;99.00;;;;;;4965269;28;20047;-81
2024/03/09 06:22:56;;;;;;;12.43;7.18;;;3.60;99.00;;;;;;4931503;28;20045;-82
2024/03/09 06:25:29;;;;;;;13.93;7.90;;;3.60;99.00;;;;;;4963033;28;20054;-81
2024/03/09 06:28:04;;;;;;;;;;;3.70;99.00;;;;;;4972521;28;20478;-81
2024/03/09 06:30:31;;;;;;;12.70;6.57;;;3.70;99.10;;;;;;4946993;28;19930;-81
2024/03/09 06:33:00;;;;;;;15.95;8.07;;;3.70;99.00;;;;;;4947501;29;20044;-81
2024/03/09 06:35:30;;;;;;;16.58;9.57;;;3.70;99.00;;;;;;4953989;28;20101;-81
2024/03/09 06:38:09;;;;;;;18.52;9.27;;;3.80;98.90;;;;;;4967311;28;20503;-81
2024/03/09 06:40:39;;;;;;;20.13;11.10;;;3.90;98.80;;;;;;4959398;28;20082;-81
2024/03/09 06:43:11;;;;;;;15.18;8.85;;;3.90;98.70;;;;;;4925227;29;20051;-81
2024/03/09 06:45:39;;;;;;;18.35;9.45;;;4.00;98.70;;;;;;4951175;28;20895;-81
2024/03/09 06:48:07;;;;;;;19.05;10.25;;;4.00;98.70;;;;;;4978866;28;20042;-81
2024/03/09 06:50:37;;;;;;;16.17;8.95;;;4.10;98.60;;;;;;4958413;28;20035;-81
2024/03/09 06:53:04;;;;;;;15.73;8.85;;;4.10;98.60;;;;;;4968957;28;20042;-81
2024/03/09 06:55:32;;;;;;;15.35;8.77;;;4.10;98.50;;;;;;4940708;29;20090;-81
2024/03/09 06:58:02;;;;;;;17.33;9.60;;;4.20;98.50;;;;;;4932942;28;20047;-81
2024/03/09 07:00:37;;;;;;;17.45;8.77;;;4.30;98.40;;;;;;4950085;28;20455;-80
2024/03/09 07:03:05;;;;;;;17.25;8.65;;;4.30;98.40;;;;;;4951900;28;20043;-82
2024/03/09 07:05:36;;;;;;;17.40;9.57;;;4.40;98.30;;;;;;4968565;28;20093;-80
2024/03/09 07:08:06;;;;;;;13.93;7.90;;;4.40;98.30;;;;;;4944719;29;20452;-81
2024/03/09 07:10:35;;;;;;;16.38;7.95;;;4.50;98.20;;;;;;4953410;28;20051;-81
2024/03/09 07:13:04;;;;;;;12.07;6.75;;;4.50;98.20;;;;;;4945200;29;20048;-81
2024/03/09 07:15:32;;;;;;;15.38;8.18;;;4.60;98.20;;;;;;4948291;28;20050;-82
2024/03/09 07:17:59;;;;;;;16.92;10.02;;;4.60;98.10;;;;;;4945168;29;20583;-81
2024/03/09 07:20:27;;;;;;;15.10;8.02;;;4.60;98.10;;;;;;4954445;28;20046;-80
2024/03/09 07:22:56;;;;;;;15.70;8.48;;;4.60;98.10;;;;;;4964727;28;20772;-81
2024/03/09 07:25:27;;;;;;;13.93;7.18;;;4.70;98.10;;;;;;4976083;28;20073;-81
2024/03/09 07:27:57;;;;;;;14.00;8.38;;;4.70;98.10;;;;;;4954410;28;20046;-81
2024/03/09 07:30:24;;;;;;;16.60;9.00;;;4.70;98.00;;;;;;4958280;28;20047;-82
2024/03/09 07:32:53;;;;;;;14.95;8.35;;;4.80;98.00;;;;;;4965215;28;20039;-81
2024/03/09 07:35:27;;;;;;;13.60;7.60;;;4.80;97.90;;;;;;4971341;28;20039;-82
2024/03/09 07:37:58;;;;;;;13.02;8.07;;;4.90;98.00;;;;;;4957681;28;20050;-81
2024/03/09 07:40:29;;;;;;;14.80;8.82;;;4.90;97.90;;;;;;4963246;28;20050;-81
2024/03/09 07:42:57;;;;;;;12.48;7.60;;;4.90;97.90;;;;;;4931615;28;20454;-82
2024/03/09 07:45:26;;;;;;;13.93;7.78;;;5.00;97.80;;;;;;4961449;28;20051;-82
2024/03/09 07:47:58;;;;;;;14.75;9.00;;;5.00;97.80;;;;;;4968723;28;20054;-83
2024/03/09 07:50:27;;;;;;;15.25;8.57;;;5.00;97.70;;;;;;4959119;28;20043;-82
2024/03/09 07:53:06;;;;;;;15.95;8.38;;;5.10;97.70;;;;;;4944436;28;20053;-82
2024/03/09 07:55:34;;;;;;;18.67;10.25;;;5.10;97.60;;;;;;4958553;28;20047;-82
2024/03/09 07:58:01;;;;;;;16.58;9.13;;;5.20;97.60;;;;;;4933158;29;20094;-81
2024/03/09 08:00:34;;;;;;;15.25;9.05;;;5.20;97.80;;;;;;4969510;28;20045;-81
2024/03/09 08:03:02;;;;;;;14.55;8.68;;;5.30;97.50;;;;;;4932961;28;20051;-81
2024/03/09 08:05:29;;;;;;;16.55;8.25;;;5.30;97.50;;;;;;4976784;28;20046;-82
2024/03/09 08:08:02;;;;;;;15.10;8.38;;;5.40;97.40;;;;;;4971376;28;20047;-90
2024/03/09 08:10:31;;;;;;;15.95;8.23;;;5.40;97.40;;;;;;4944817;28;20049;-82
2024/03/09 08:12:59;;;;;;;14.43;8.52;;;5.50;97.40;;;;;;4929145;28;20047;-82
2024/03/09 08:15:28;;;;;;;12.77;7.35;;;5.50;97.30;;;;;;4925698;29;20492;-81
2024/03/09 08:17:56;;;;;;;14.52;8.75;;;5.60;97.30;;;;;;4953169;29;20543;-81
2024/03/09 08:20:24;;;;;;;14.05;8.27;;;5.60;97.30;;;;;;4945357;28;20122;-82
2024/03/09 08:22:54;;;;;;;14.73;7.80;;;5.70;97.20;;;;;;4944387;28;20082;-81
2024/03/09 08:25:27;;;;;;;14.50;8.55;;;5.60;97.20;;;;;;4958349;28;20050;-82
2024/03/09 08:27:55;;;;;;;13.77;8.35;;;5.70;97.20;;;;;;4929816;28;20051;-83
2024/03/09 08:30:22;;;;;;;13.75;8.05;;;5.70;97.20;;;;;;4950919;28;20085;-82
2024/03/09 08:32:58;;;;;;;16.58;8.93;;;5.80;97.20;;;;;;4972085;28;20047;-82
2024/03/09 08:35:28;;;;;;;14.27;8.57;;;5.80;97.10;;;;;;4969484;28;20098;-81
2024/03/09 08:37:56;;;;;;;13.48;7.00;;;5.90;97.00;;;;;;4957701;28;20050;-82
2024/03/09 08:40:25;;;;;;;14.63;7.20;;;6.00;96.90;;;;;;4957680;28;20443;-82
2024/03/09 08:42:54;;;;;;;16.00;9.68;;;6.20;96.80;;;;;;4941577;28;20077;-81
2024/03/09 08:45:23;;;;;;;13.95;8.10;;;6.30;96.60;;;;;;4957580;28;20415;-82
2024/03/09 08:47:51;;;;;;;13.65;7.75;;;6.40;96.50;;;;;;4966410;28;20066;-82
2024/03/09 08:50:23;;;;;;;12.73;7.47;;;6.50;96.40;;;;;;4935996;28;20058;-82
2024/03/09 08:52:55;;;;;;;14.70;7.70;;;6.60;96.30;;;;;;4933701;29;20051;-83
2024/03/09 08:55:23;;;;;;;12.70;7.32;;;6.70;96.20;;;;;;4969931;28;20050;-81
2024/03/09 08:57:52;;;;;;;13.07;8.05;;;6.80;96.20;;;;;;4965187;28;20046;-83
2024/03/09 09:00:20;;;;;;;11.52;6.60;;;6.80;96.10;;;;;;4960926;28;20124;-83
2024/03/09 09:02:51;;;;;;;10.73;5.70;;;6.90;96.10;;;;;;4944755;28;20081;-83
2024/03/09 09:05:21;;;;;;;13.55;7.47;;;6.90;96.00;;;;;;4942503;28;20047;-83
2024/03/09 09:07:53;;;;;;;13.95;8.00;;;7.00;96.00;;;;;;4936454;29;20062;-82
2024/03/09 09:10:28;;;;;;;12.68;6.78;;;7.00;96.00;;;;;;4938193;29;20126;-81
2024/03/09 09:12:55;;;;;;;14.27;8.65;;;7.00;95.90;;;;;;4922443;29;20050;-81
2024/03/09 09:15:25;;;;;;;12.38;7.28;;;7.00;95.90;;;;;;4966254;28;20432;-82
2024/03/09 09:17:55;;;;;;;12.18;7.20;;;7.10;95.90;;;;;;4939945;28;20046;-81
2024/03/09 09:20:22;;;;;;;12.70;6.72;;;7.20;95.80;;;;;;4941650;28;20051;-81
2024/03/09 09:22:50;;;;;;;11.82;6.95;;;7.30;95.70;;;;;;4971247;28;20046;-82
2024/03/09 09:25:23;;;;;;;11.50;6.68;;;7.40;95.60;;;;;;4926606;29;20114;-81
2024/03/09 09:27:56;;;;;;;11.02;6.43;;;7.50;95.50;;;;;;4943356;28;20121;-82
2024/03/09 09:30:26;;;;;;;13.80;8.25;;;7.40;95.50;;;;;;4936011;28;20045;-82
2024/03/09 09:32:53;;;;;;;16.27;9.23;;;7.40;95.50;;;;;;4930358;29;20110;-80
2024/03/09 09:35:24;;;;;;;13.45;7.95;;;7.30;95.50;;;;;;4956965;28;20081;-82
2024/03/09 09:37:57;;;;;;;15.95;8.57;;;7.30;95.60;;;;;;4971399;28;20482;-82
2024/03/09 09:40:26;;;;;;;16.02;9.68;;;7.20;95.60;;;;;;4945395;29;20500;-82
2024/03/09 09:42:53;;;;;;;12.85;8.15;;;7.20;95.70;;;;;;4947641;28;20050;-82
2024/03/09 09:45:22;;;;;;;11.88;6.93;;;7.20;95.80;;;;;;4935968;28;20065;-82
2024/03/09 09:47:50;;;;;;;12.70;7.50;;;7.20;95.80;;;;;;4951578;28;20051;-82
2024/03/09 09:50:24;;;;;;;15.40;9.15;;;7.20;95.80;;;;;;4972950;28;20049;-80
2024/03/09 09:52:52;;;;;;;14.60;8.02;;;7.20;95.70;;;;;;4922161;29;20048;-81
2024/03/09 09:55:19;;;;;;;14.70;9.00;;;7.20;95.80;;;;;;4957200;29;20051;-81
2024/03/09 09:57:47;;;;;;;12.57;8.23;;;7.20;95.70;;;;;;4925965;29;20484;-87
2024/03/09 10:00:16;;;;;;;20.17;11.35;;;7.30;95.60;;;;;;4957072;28;20050;-83
2024/03/09 10:02:45;;;;;;;14.00;8.65;;;7.30;95.50;;;;;;4974166;28;20557;-84
2024/03/09 10:05:17;;;;;;;16.35;9.50;;;7.40;95.50;;;;;;4940825;28;20109;-83
2024/03/09 10:07:58;;;;;;;16.77;8.95;;;7.40;95.40;;;;;;4930015;28;20492;-84
2024/03/09 10:10:27;;;;;;;14.13;8.65;;;7.50;95.30;;;;;;4928010;29;20118;-87
2024/03/09 10:13:24;;;;;;;11.60;7.15;;;7.60;95.30;;;;;;4947207;28;20400;-87
2024/03/09 10:15:52;;;;;;;11.77;7.03;;;7.70;95.30;;;;;;4948524;28;20054;-86
2024/03/09 10:18:21;;;;;;;13.00;8.05;;;7.70;95.30;;;;;;4980254;28;20030;-86
2024/03/09 10:20:51;;;;;;;9.70;6.22;;;7.70;95.30;;;;;;4963899;28;20058;-86
2024/03/09 10:23:19;;;;;;;12.02;7.53;;;7.80;95.30;;;;;;4940251;28;20057;-87
2024/03/09 10:25:47;;;;;;;8.10;5.00;;;7.80;95.30;;;;;;4961135;28;20097;-87
2024/03/09 10:28:15;;;;;;;10.68;6.32;;;7.90;95.30;;;;;;4957539;28;20046;-86
2024/03/09 10:30:43;;;;;;;8.98;5.43;;;7.90;95.20;;;;;;4929936;28;20448;-88
2024/03/09 10:33:11;;;;;;;11.38;6.55;;;8.00;95.20;;;;;;4960594;28;20042;-86
2024/03/09 10:35:46;;;;;;;10.73;6.22;;;8.10;95.20;;;;;;4960455;28;20086;-86
2024/03/09 10:38:17;;;;;;;10.50;5.97;;;8.30;95.10;;;;;;4951996;28;20051;-85
2024/03/09 10:40:44;;;;;;;10.52;5.93;;;8.40;94.90;;;;;;4957557;28;20061;-89
2024/03/09 10:43:14;;;;;;;10.75;6.55;;;8.60;94.70;;;;;;4950192;28;20101;-89
2024/03/09 10:45:41;;;;;;;11.18;6.63;;;8.70;94.60;;;;;;4937461;29;20058;-89
2024/03/09 10:48:09;;;;;;;13.73;7.78;;;8.70;94.50;;;;;;4951460;28;20062;-88
2024/03/09 10:50:49;;;;;;;9.77;5.53;;;8.80;94.40;;;;;;4948982;28;20141;-88
2024/03/09 10:53:38;;;;;;;11.70;7.32;;;8.90;94.40;;;;;;4941397;29;20529;-89
2024/03/09 10:56:19;;;;;;;12.02;7.38;;;8.90;94.30;;;;;;4974340;28;20487;-86
2024/03/09 10:58:47;;;;;;;9.75;5.85;;;8.90;94.40;;;;;;4958943;28;20133;-84
2024/03/09 11:01:17;;;;;;;12.55;7.63;;;8.90;94.50;;;;;;4973629;28;20043;-85
2024/03/09 11:03:49;;;;;;;12.63;7.60;;;8.90;94.40;;;;;;4938025;28;20055;-88
2024/03/09 11:06:18;;;;;;;11.52;7.30;;;8.90;94.40;;;;;;4933393;28;20137;-87
2024/03/09 11:08:54;;;;;;;12.50;7.22;;;9.00;94.40;;;;;;4950732;28;20495;-89
2024/03/09 11:11:24;;;;;;;11.60;6.35;;;9.10;94.30;;;;;;4959757;28;20039;-90
2024/03/09 11:13:54;;;;;;;11.60;7.07;;;9.30;94.20;;;;;;4976254;28;20065;-82
2024/03/09 11:16:26;;;;;;;11.23;6.65;;;9.40;94.10;;;;;;4959178;28;20043;-81
2024/03/09 11:18:55;;;;;;;11.13;6.82;;;9.50;94.00;;;;;;4930225;29;20127;-88
2024/03/09 11:21:35;;;;;;;11.25;6.38;;;9.50;94.00;;;;;;4941571;29;20082;-88
2024/03/09 11:24:07;;;;;;;10.43;5.97;;;9.70;93.90;;;;;;4940928;29;20055;-88
2024/03/09 11:26:54;;;;;;;10.02;5.97;;;9.80;93.80;;;;;;4949831;29;20120;-85
2024/03/09 11:29:30;;;;;;;10.82;5.78;;;9.80;93.80;;;;;;4955800;28;20043;-88
2024/03/09 11:32:01;;;;;;;11.27;6.50;;;9.90;93.70;;;;;;4944533;28;20384;-88
2024/03/09 11:34:29;;;;;;;9.95;5.97;;;9.90;93.80;;;;;;4955613;28;20133;-85
2024/03/09 11:37:00;;;;;;;10.73;6.25;;;9.90;93.70;;;;;;4963097;28;20541;-89
2024/03/09 11:39:31;;;;;;;11.10;6.07;;;10.00;93.60;;;;;;4963420;28;20054;-89
2024/03/09 11:42:11;;;;;;;9.32;5.80;;;10.20;93.50;;;;;;4963344;28;20137;-88
2024/03/09 11:44:39;;;;;;;9.95;6.15;;;10.40;93.30;;;;;;4947422;28;20512;-91
2024/03/09 11:47:07;;;;;;;8.75;5.68;;;10.50;93.20;;;;;;4954620;28;20169;-89
2024/03/09 11:49:39;;;;;;;9.23;6.05;;;10.70;93.00;;;;;;4943819;28;20046;-89
2024/03/09 11:52:11;;;;;;;8.85;5.82;;;10.70;92.90;;;;;;4943783;28;20050;-89
2024/03/09 11:54:39;;;;;;;10.68;6.45;;;10.70;93.00;;;;;;4950540;28;20055;-89
2024/03/09 11:57:08;;;;;;;12.32;7.47;;;10.70;92.90;;;;;;4940117;28;20051;-85
2024/03/09 11:59:35;;;;;;;13.27;8.30;;;10.70;92.70;;;;;;4924645;29;20492;-89
2024/03/09 12:02:07;;;;;;;15.05;8.75;;;10.70;92.60;;;;;;4935527;28;20069;-86
2024/03/09 12:04:35;;;;;;;14.88;8.63;;;10.70;92.60;;;;;;4943291;28;20137;-88
2024/03/09 12:07:08;;;;;;;12.18;6.82;;;10.70;92.50;;;;;;4942778;28;20042;-86
2024/03/09 12:09:37;;;;;;;12.52;7.60;;;10.70;92.50;;;;;;4958608;28;20055;-84
2024/03/09 12:12:12;;;;;;;10.63;6.47;;;10.80;92.50;;;;;;4936813;28;20137;-79
2024/03/09 12:14:44;;;;;;;11.05;6.90;;;11.00;92.40;;;;;;4963126;28;20067;-82
2024/03/09 12:17:12;;;;;;;9.55;6.25;;;11.20;92.20;;;;;;4967520;28;20575;-81
2024/03/09 12:19:41;;;;;;;10.90;7.28;;;11.30;92.20;;;;;;4944005;28;20503;-83
2024/03/09 12:22:10;;;;;;;11.90;6.65;;;11.20;92.10;;;;;;4942159;28;20137;-81
2024/03/09 12:24:37;;;;;;;10.52;6.10;;;11.20;92.20;;;;;;4957879;28;20054;-82
2024/03/09 12:27:05;;;;;;;10.60;6.47;;;11.20;92.30;;;;;;4938592;29;20101;-81
2024/03/09 12:29:32;;;;;;;11.85;6.57;;;11.30;92.20;;;;;;4938418;29;20051;-82
2024/03/09 12:32:01;;;;;;;13.63;6.68;;;11.30;92.10;;;;;;4922711;29;20094;-82
2024/03/09 12:34:29;;;;;;;9.52;6.03;;;11.40;91.90;;;;;;4965073;28;20505;-82
2024/03/09 12:36:57;;;;;;;10.18;5.80;;;11.50;91.90;;;;;;4956740;28;20070;-82
2024/03/09 12:39:27;;;;;;;9.88;5.53;;;11.70;91.80;;;;;;4975004;28;20039;-81
2024/03/09 12:41:56;;;;;;;9.57;6.10;;;11.80;91.70;;;;;;4972792;28;20049;-84
2024/03/09 12:44:24;;;;;;;11.75;7.68;;;11.90;91.50;;;;;;4957450;28;20145;-81
2024/03/09 12:46:54;;;;;;;12.38;7.78;;;11.90;91.20;;;;;;4956318;28;20058;-81
2024/03/09 12:49:22;;;;;;;9.98;6.15;;;11.90;91.20;;;;;;4974703;28;20046;-80
2024/03/09 12:51:50;;;;;;;9.85;6.18;;;11.90;91.40;;;;;;4974637;28;20429;-80
2024/03/09 12:54:19;;;;;;;10.07;6.80;;;11.80;91.40;;;;;;4951928;28;20046;-80
2024/03/09 12:56:51;;;;;;;10.65;6.50;;;11.80;91.40;;;;;;4974859;28;20066;-84